createdAt,value
2019-02-04T00:00:42.174Z,99.1
2019-02-04T00:01:42.839Z,99.3
2019-02-04T00:02:43.507Z,99.1
2019-02-04T00:03:44.178Z,99.0
2019-02-04T00:04:45.076Z,99.0
2019-02-04T00:05:45.749Z,99.3
2019-02-04T00:06:46.415Z,99.8
2019-02-04T00:07:47.128Z,99.6
2019-02-04T00:08:47.794Z,99.6
2019-02-04T00:09:48.463Z,99.8
2019-02-04T00:10:49.131Z,100.0
2019-02-04T00:11:49.798Z,99.6
2019-02-04T00:12:50.461Z,99.6
2019-02-04T00:13:51.391Z,99.6
2019-02-04T00:14:52.058Z,99.2
2019-02-04T00:15:52.724Z,100.0
2019-02-04T00:16:53.397Z,99.6
2019-02-04T00:17:54.060Z,100.0
2019-02-04T00:18:54.726Z,99.9
2019-02-04T00:19:55.393Z,99.5
2019-02-04T00:20:56.060Z,99.8
2019-02-04T00:21:56.729Z,100.0
2019-02-04T00:22:57.699Z,100.0
2019-02-04T00:23:58.367Z,100.0
2019-02-04T00:24:59.036Z,100.0
2019-02-04T00:25:59.703Z,100.0
2019-02-04T00:27:00.373Z,100.0
2019-02-04T00:28:01.042Z,100.0
2019-02-04T00:29:01.765Z,100.0
2019-02-04T00:30:02.391Z,100.0
2019-02-04T00:31:05.207Z,100.0
2019-02-04T00:32:04.947Z,100.0
2019-02-04T00:33:05.615Z,100.0
2019-02-04T00:34:06.284Z,100.0
2019-02-04T00:35:06.952Z,100.0
2019-02-04T00:36:07.619Z,100.0
2019-02-04T00:37:08.290Z,100.0
2019-02-04T00:38:08.958Z,100.0
2019-02-04T00:39:09.675Z,100.0
2019-02-04T00:40:10.612Z,100.0
2019-02-04T00:41:11.279Z,100.0
2019-02-04T00:42:11.945Z,100.0
2019-02-04T00:43:12.616Z,100.0
2019-02-04T00:44:13.282Z,100.0
2019-02-04T00:45:13.950Z,100.0
2019-02-04T00:46:14.619Z,100.0
2019-02-04T00:47:15.286Z,100.0
2019-02-04T00:48:16.137Z,100.0
2019-02-04T00:49:16.805Z,100.0
2019-02-04T00:50:17.473Z,100.0
2019-02-04T00:51:18.142Z,100.0
2019-02-04T00:52:18.811Z,100.0
2019-02-04T00:53:19.480Z,100.0
2019-02-04T00:54:20.147Z,100.0
2019-02-04T00:55:20.817Z,100.0
2019-02-04T00:56:21.484Z,100.0
2019-02-04T00:57:22.366Z,100.0
2019-02-04T00:58:23.036Z,100.0
2019-02-04T00:59:23.703Z,100.0
2019-02-04T01:00:24.372Z,100.0
2019-02-04T01:01:25.037Z,100.0
2019-02-04T01:02:25.707Z,100.0
2019-02-04T01:03:26.378Z,100.0
2019-02-04T01:04:27.043Z,100.0
2019-02-04T01:05:27.851Z,100.0
2019-02-04T01:06:28.511Z,100.0
2019-02-04T01:07:29.179Z,100.0
2019-02-04T01:08:29.915Z,100.0
2019-02-04T01:09:30.589Z,100.0
2019-02-04T01:10:31.252Z,100.0
2019-02-04T01:11:31.920Z,100.0
2019-02-04T01:12:32.587Z,100.0
2019-02-04T01:13:33.256Z,100.0
2019-02-04T01:14:34.228Z,100.0
2019-02-04T01:15:34.897Z,100.0
2019-02-04T01:16:35.564Z,100.0
2019-02-04T01:17:36.233Z,100.0
2019-02-04T01:18:36.898Z,100.0
2019-02-04T01:19:37.566Z,100.0
2019-02-04T01:20:38.233Z,100.0
2019-02-04T01:21:38.902Z,100.0
2019-02-04T01:22:39.617Z,100.0
2019-02-04T01:23:40.628Z,100.0
2019-02-04T01:24:41.295Z,100.0
2019-02-04T01:25:41.968Z,100.0
2019-02-04T01:26:42.633Z,100.0
2019-02-04T01:27:43.369Z,100.0
2019-02-04T01:28:44.037Z,100.0
2019-02-04T01:29:44.702Z,100.0
2019-02-04T01:30:45.372Z,100.0
2019-02-04T01:31:46.056Z,100.0
2019-02-04T01:32:46.725Z,100.0
2019-02-04T01:33:47.394Z,100.0
2019-02-04T01:34:48.947Z,100.0
2019-02-04T01:35:49.694Z,100.0
2019-02-04T01:36:50.425Z,100.0
2019-02-04T01:37:51.090Z,100.0
2019-02-04T01:38:51.759Z,100.0
2019-02-04T01:39:52.427Z,100.0
2019-02-04T01:40:53.431Z,100.0
2019-02-04T01:41:54.099Z,100.0
2019-02-04T01:42:54.769Z,100.0
2019-02-04T01:43:55.438Z,100.0
2019-02-04T01:44:56.104Z,100.0
2019-02-04T01:45:56.774Z,100.0
2019-02-04T01:46:57.440Z,100.0
2019-02-04T01:47:58.108Z,100.0
2019-02-04T01:48:58.773Z,100.0
2019-02-04T01:49:59.742Z,100.0
2019-02-04T01:51:00.411Z,100.0
2019-02-04T01:52:01.078Z,100.0
2019-02-04T01:53:01.747Z,100.0
2019-02-04T01:54:02.415Z,100.0
2019-02-04T01:55:03.082Z,100.0
2019-02-04T01:56:03.752Z,100.0
2019-02-04T01:57:04.418Z,100.0
2019-02-04T01:58:05.301Z,100.0
2019-02-04T01:59:05.966Z,100.0
2019-02-04T02:00:06.634Z,100.0
2019-02-04T02:01:07.304Z,100.0
2019-02-04T02:02:07.969Z,100.0
2019-02-04T02:03:08.638Z,100.0
2019-02-04T02:04:09.306Z,100.0
2019-02-04T02:05:10.023Z,100.0
2019-02-04T02:06:10.692Z,100.0
2019-02-04T02:07:11.587Z,100.0
2019-02-04T02:08:12.256Z,100.0
2019-02-04T02:09:12.923Z,100.0
2019-02-04T02:10:13.589Z,100.0
2019-02-04T02:11:14.259Z,100.0
2019-02-04T02:12:14.924Z,100.0
2019-02-04T02:13:15.593Z,100.0
2019-02-04T02:14:16.260Z,100.0
2019-02-04T02:15:16.928Z,100.0
2019-02-04T02:16:17.942Z,100.0
2019-02-04T02:17:25.978Z,100.0
2019-02-04T02:18:20.270Z,100.0
2019-02-04T02:19:20.941Z,100.0
2019-02-04T02:20:21.604Z,100.0
2019-02-04T02:21:22.271Z,100.0
2019-02-04T02:22:22.937Z,100.0
2019-02-04T02:23:23.604Z,100.0
2019-02-04T02:24:24.272Z,100.0
2019-02-04T02:25:24.939Z,100.0
2019-02-04T02:26:25.606Z,100.0
2019-02-04T02:27:26.318Z,100.0
2019-02-04T02:28:26.984Z,100.0
2019-02-04T02:29:27.700Z,100.0
2019-02-04T02:30:28.370Z,100.0
2019-02-04T02:31:29.036Z,100.0
2019-02-04T02:32:29.702Z,100.0
2019-02-04T02:33:30.673Z,100.0
2019-02-04T02:34:31.334Z,100.0
2019-02-04T02:35:32.001Z,100.0
2019-02-04T02:36:32.670Z,100.0
2019-02-04T02:37:33.336Z,100.0
2019-02-04T02:38:34.005Z,100.0
2019-02-04T02:39:34.776Z,100.0
2019-02-04T02:40:35.432Z,100.0
2019-02-04T02:41:36.083Z,100.0
2019-02-04T02:42:36.752Z,100.0
2019-02-04T02:43:37.469Z,100.0
2019-02-04T02:44:38.139Z,100.0
2019-02-04T02:45:38.805Z,100.0
2019-02-04T02:46:39.476Z,100.0
2019-02-04T02:47:40.140Z,100.0
2019-02-04T02:48:40.806Z,100.0
2019-02-04T02:49:41.474Z,100.0
2019-02-04T02:50:42.353Z,100.0
2019-02-04T02:51:43.064Z,100.0
2019-02-04T02:52:43.727Z,100.0
2019-02-04T02:53:44.393Z,100.0
2019-02-04T02:54:45.064Z,100.0
2019-02-04T02:55:45.729Z,100.0
2019-02-04T02:56:46.394Z,100.0
2019-02-04T02:57:47.062Z,100.0
2019-02-04T02:58:47.954Z,100.0
2019-02-04T02:59:48.624Z,100.0
2019-02-04T03:00:49.290Z,100.0
2019-02-04T03:01:49.958Z,100.0
2019-02-04T03:02:50.626Z,100.0
2019-02-04T03:03:51.293Z,100.0
2019-02-04T03:04:52.076Z,100.0
2019-02-04T03:05:52.707Z,100.0
2019-02-04T03:06:53.374Z,100.0
2019-02-04T03:07:54.251Z,100.0
2019-02-04T03:08:54.916Z,100.0
2019-02-04T03:09:55.584Z,100.0
2019-02-04T03:10:56.252Z,100.0
2019-02-04T03:11:56.921Z,100.0
2019-02-04T03:12:57.586Z,100.0
2019-02-04T03:13:58.251Z,100.0
2019-02-04T03:14:58.918Z,100.0
2019-02-04T03:15:59.585Z,100.0
2019-02-04T03:17:00.255Z,100.0
2019-02-04T03:18:00.970Z,100.0
2019-02-04T03:19:01.640Z,100.0
2019-02-04T03:20:02.305Z,100.0
2019-02-04T03:21:02.974Z,100.0
2019-02-04T03:22:03.639Z,100.0
2019-02-04T03:23:04.307Z,100.0
2019-02-04T03:24:04.974Z,100.0
2019-02-04T03:25:05.902Z,100.0
2019-02-04T03:26:06.565Z,100.0
2019-02-04T03:27:07.228Z,100.0
2019-02-04T03:28:08.055Z,100.0
2019-02-04T03:29:08.684Z,100.0
2019-02-04T03:30:09.363Z,100.0
2019-02-04T03:31:10.018Z,100.0
2019-02-04T03:32:10.692Z,100.0
2019-02-04T03:33:11.402Z,100.0
2019-02-04T03:34:12.390Z,100.0
2019-02-04T03:35:13.056Z,100.0
2019-02-04T03:36:13.726Z,100.0
2019-02-04T03:37:14.400Z,100.0
2019-02-04T03:38:15.059Z,100.0
2019-02-04T03:39:15.725Z,100.0
2019-02-04T03:40:16.392Z,100.0
2019-02-04T03:41:17.060Z,100.0
2019-02-04T03:42:17.920Z,100.0
2019-02-04T03:43:18.595Z,100.0
2019-02-04T03:44:19.253Z,100.0
2019-02-04T03:45:19.919Z,100.0
2019-02-04T03:46:20.588Z,100.0
2019-02-04T03:47:21.257Z,100.0
2019-02-04T03:48:21.925Z,100.0
2019-02-04T03:49:22.587Z,100.0
2019-02-04T03:50:23.253Z,100.0
2019-02-04T03:51:24.163Z,100.0
2019-02-04T03:52:24.822Z,100.0
2019-02-04T03:53:25.490Z,100.0
2019-02-04T03:54:26.157Z,100.0
2019-02-04T03:55:26.825Z,100.0
2019-02-04T03:56:27.493Z,100.0
2019-02-04T03:57:28.160Z,100.0
2019-02-04T03:58:28.828Z,100.0
2019-02-04T03:59:29.494Z,100.0
2019-02-04T04:00:30.491Z,100.0
2019-02-04T04:01:31.157Z,100.0
2019-02-04T04:02:31.824Z,100.0
2019-02-04T04:03:32.492Z,100.0
2019-02-04T04:04:33.159Z,100.0
2019-02-04T04:05:33.826Z,100.0
2019-02-04T04:06:34.494Z,100.0
2019-02-04T04:07:35.166Z,100.0
2019-02-04T04:08:36.090Z,100.0
2019-02-04T04:09:36.759Z,100.0
2019-02-04T04:10:37.426Z,100.0
2019-02-04T04:11:38.091Z,100.0
2019-02-04T04:12:38.760Z,100.0
2019-02-04T04:13:39.426Z,100.0
2019-02-04T04:14:40.093Z,100.0
2019-02-04T04:15:40.762Z,100.0
2019-02-04T04:16:41.428Z,100.0
2019-02-04T04:17:42.352Z,100.0
2019-02-04T04:18:43.020Z,100.0
2019-02-04T04:19:43.689Z,100.0
2019-02-04T04:20:44.404Z,100.0
2019-02-04T04:21:45.073Z,100.0
2019-02-04T04:22:45.739Z,100.0
2019-02-04T04:23:46.408Z,100.0
2019-02-04T04:24:47.124Z,100.0
2019-02-04T04:25:47.789Z,100.0
2019-02-04T04:26:48.456Z,100.0
2019-02-04T04:27:49.128Z,100.0
2019-02-04T04:28:49.791Z,100.0
2019-02-04T04:29:50.457Z,100.0
2019-02-04T04:30:51.124Z,100.0
2019-02-04T04:31:51.795Z,100.0
2019-02-04T04:32:52.460Z,100.0
2019-02-04T04:33:53.130Z,100.0
2019-02-04T04:34:54.041Z,100.0
2019-02-04T04:35:54.709Z,100.0
2019-02-04T04:36:55.403Z,100.0
2019-02-04T04:37:56.035Z,100.0
2019-02-04T04:38:56.702Z,100.0
2019-02-04T04:39:57.369Z,100.0
2019-02-04T04:40:58.037Z,100.0
2019-02-04T04:41:58.704Z,100.0
2019-02-04T04:42:59.421Z,100.0
2019-02-04T04:44:00.084Z,100.0
2019-02-04T04:45:00.753Z,100.0
2019-02-04T04:46:01.417Z,100.0
2019-02-04T04:47:02.088Z,100.0
2019-02-04T04:48:02.754Z,100.0
2019-02-04T04:49:03.469Z,100.0
2019-02-04T04:50:04.137Z,100.0
2019-02-04T04:51:04.806Z,100.0
2019-02-04T04:52:05.513Z,100.0
2019-02-04T04:53:06.181Z,100.0
2019-02-04T04:54:06.850Z,100.0
2019-02-04T04:55:07.520Z,100.0
2019-02-04T04:56:08.184Z,100.0
2019-02-04T04:57:08.851Z,100.0
2019-02-04T04:58:09.517Z,100.0
2019-02-04T04:59:10.185Z,100.0
2019-02-04T05:00:10.852Z,100.0
2019-02-04T05:01:11.530Z,100.0
2019-02-04T05:02:12.198Z,100.0
2019-02-04T05:03:12.865Z,100.0
2019-02-04T05:04:13.531Z,100.0
2019-02-04T05:05:14.198Z,100.0
2019-02-04T05:06:14.865Z,100.0
2019-02-04T05:07:15.533Z,100.0
2019-02-04T05:08:16.249Z,100.0
2019-02-04T05:09:16.911Z,100.0
2019-02-04T05:10:17.578Z,100.0
2019-02-04T05:11:18.245Z,100.0
2019-02-04T05:12:18.913Z,100.0
2019-02-04T05:13:19.579Z,100.0
2019-02-04T05:14:20.356Z,100.0
2019-02-04T05:15:20.988Z,100.0
2019-02-04T05:16:21.622Z,100.0
2019-02-04T05:17:22.288Z,100.0
2019-02-04T05:18:22.954Z,100.0
2019-02-04T05:19:23.625Z,100.0
2019-02-04T05:20:24.290Z,100.0
2019-02-04T05:21:24.956Z,100.0
2019-02-04T05:22:25.622Z,100.0
2019-02-04T05:23:26.289Z,100.0
2019-02-04T05:24:26.957Z,100.0
2019-02-04T05:25:27.625Z,100.0
2019-02-04T05:26:28.501Z,100.0
2019-02-04T05:27:29.166Z,100.0
2019-02-04T05:28:29.835Z,100.0
2019-02-04T05:29:30.513Z,100.0
2019-02-04T05:30:31.167Z,100.0
2019-02-04T05:31:31.836Z,100.0
2019-02-04T05:32:32.499Z,100.0
2019-02-04T05:33:33.166Z,100.0
2019-02-04T05:34:33.835Z,100.0
2019-02-04T05:35:34.783Z,100.0
2019-02-04T05:36:35.449Z,100.0
2019-02-04T05:37:36.117Z,100.0
2019-02-04T05:38:36.782Z,100.0
2019-02-04T05:39:37.450Z,100.0
2019-02-04T05:40:38.167Z,100.0
2019-02-04T05:41:38.836Z,100.0
2019-02-04T05:42:39.513Z,100.0
2019-02-04T05:43:40.222Z,100.0
2019-02-04T05:44:40.890Z,100.0
2019-02-04T05:45:41.554Z,100.0
2019-02-04T05:46:42.220Z,99.8
2019-02-04T05:47:42.885Z,100.0
2019-02-04T05:48:49.467Z,100.0
2019-02-04T05:49:45.214Z,99.9
2019-02-04T05:50:45.882Z,99.4
2019-02-04T05:51:46.548Z,99.8
2019-02-04T05:52:47.462Z,99.5
2019-02-04T05:53:48.127Z,99.6
2019-02-04T05:54:48.794Z,99.5
2019-02-04T05:55:49.462Z,99.2
2019-02-04T05:56:50.128Z,99.3
2019-02-04T05:57:50.795Z,99.5
2019-02-04T05:58:51.462Z,99.6
2019-02-04T05:59:52.129Z,99.3
2019-02-04T06:00:52.793Z,99.3
2019-02-04T06:01:53.488Z,99.4
2019-02-04T06:02:54.185Z,98.8
2019-02-04T06:03:54.842Z,99.2
2019-02-04T06:04:55.508Z,99.2
2019-02-04T06:05:56.175Z,99.0
2019-02-04T06:06:56.846Z,98.9
2019-02-04T06:07:57.508Z,99.4
2019-02-04T06:08:58.172Z,99.0
2019-02-04T06:09:58.999Z,99.2
2019-02-04T06:10:59.664Z,99.3
2019-02-04T06:12:00.332Z,99.3
2019-02-04T06:13:00.997Z,98.9
2019-02-04T06:14:01.664Z,98.8
2019-02-04T06:15:02.332Z,99.5
2019-02-04T06:16:03.053Z,99.3
2019-02-04T06:17:03.769Z,99.1
2019-02-04T06:18:04.437Z,99.3
2019-02-04T06:19:05.468Z,99.3
2019-02-04T06:20:06.134Z,99.0
2019-02-04T06:21:06.801Z,99.0
2019-02-04T06:22:07.468Z,98.6
2019-02-04T06:23:08.141Z,98.4
2019-02-04T06:24:08.802Z,98.3
2019-02-04T06:25:09.474Z,98.8
2019-02-04T06:26:10.135Z,98.5
2019-02-04T06:27:10.957Z,98.2
2019-02-04T06:28:11.621Z,98.2
2019-02-04T06:29:12.289Z,98.4
2019-02-04T06:30:12.956Z,98.4
2019-02-04T06:31:13.625Z,98.7
2019-02-04T06:32:14.294Z,98.5
2019-02-04T06:33:14.961Z,98.7
2019-02-04T06:34:15.631Z,99.3
2019-02-04T06:35:16.297Z,98.5
2019-02-04T06:36:17.309Z,99.0
2019-02-04T06:37:17.977Z,99.3
2019-02-04T06:38:18.644Z,99.2
2019-02-04T06:39:19.313Z,99.2
2019-02-04T06:40:19.980Z,98.8
2019-02-04T06:41:20.648Z,99.2
2019-02-04T06:42:21.317Z,99.3
2019-02-04T06:43:21.983Z,99.0
2019-02-04T06:44:22.885Z,98.4
2019-02-04T06:45:23.555Z,98.7
2019-02-04T06:46:24.225Z,98.4
2019-02-04T06:47:24.895Z,98.7
2019-02-04T06:48:25.563Z,99.3
2019-02-04T06:49:26.233Z,99.1
2019-02-04T06:50:26.902Z,99.3
2019-02-04T06:51:27.569Z,99.3
2019-02-04T06:52:28.239Z,99.1
2019-02-04T06:53:29.156Z,99.1
2019-02-04T06:54:29.827Z,99.2
2019-02-04T06:55:30.494Z,99.0
2019-02-04T06:56:31.161Z,99.2
2019-02-04T06:57:31.830Z,99.3
2019-02-04T06:58:32.548Z,99.6
2019-02-04T06:59:33.215Z,99.7
2019-02-04T07:00:33.885Z,99.2
2019-02-04T07:01:34.751Z,99.3
2019-02-04T07:02:35.421Z,99.3
2019-02-04T07:03:36.095Z,100.0
2019-02-04T07:04:36.761Z,99.0
2019-02-04T07:05:43.886Z,99.2
2019-02-04T07:06:39.092Z,99.5
2019-02-04T07:07:39.763Z,99.4
2019-02-04T07:08:40.432Z,99.7
2019-02-04T07:09:41.101Z,99.4
2019-02-04T07:10:42.024Z,99.6
2019-02-04T07:11:42.694Z,99.6
2019-02-04T07:12:43.362Z,99.6
2019-02-04T07:13:44.031Z,99.9
2019-02-04T07:14:44.700Z,99.8
2019-02-04T07:15:45.370Z,99.7
2019-02-04T07:16:46.042Z,99.7
2019-02-04T07:17:46.710Z,99.7
2019-02-04T07:18:47.607Z,99.2
2019-02-04T07:19:48.276Z,99.7
2019-02-04T07:20:48.944Z,99.6
2019-02-04T07:21:49.619Z,99.6
2019-02-04T07:22:50.285Z,99.5
2019-02-04T07:23:50.953Z,99.6
2019-02-04T07:24:51.656Z,99.3
2019-02-04T07:25:52.342Z,99.8
2019-02-04T07:26:53.012Z,99.5
2019-02-04T07:27:53.683Z,100.0
2019-02-04T07:28:54.354Z,99.8
2019-02-04T07:29:55.023Z,99.8
2019-02-04T07:30:55.692Z,99.4
2019-02-04T07:31:56.362Z,99.8
2019-02-04T07:32:57.033Z,99.7
2019-02-04T07:33:57.704Z,100.0
2019-02-04T07:34:58.375Z,99.3
2019-02-04T07:35:59.088Z,99.6
2019-02-04T07:36:59.760Z,99.8
2019-02-04T07:38:00.430Z,99.1
2019-02-04T07:39:01.102Z,99.1
2019-02-04T07:40:01.772Z,99.1
2019-02-04T07:41:02.445Z,99.1
2019-02-04T07:42:03.114Z,99.2
2019-02-04T07:43:03.788Z,99.1
2019-02-04T07:44:04.501Z,99.2
2019-02-04T07:45:05.171Z,99.3
2019-02-04T07:46:05.841Z,99.3
2019-02-04T07:47:06.512Z,99.4
2019-02-04T07:48:07.182Z,99.3
2019-02-04T07:49:07.854Z,99.0
2019-02-04T07:50:08.525Z,98.9
2019-02-04T07:51:09.194Z,98.8
2019-02-04T07:52:09.864Z,99.1
2019-02-04T07:53:10.857Z,99.0
2019-02-04T07:54:11.528Z,99.1
2019-02-04T07:55:12.248Z,99.1
2019-02-04T07:56:12.927Z,98.6
2019-02-04T07:57:13.587Z,98.7
2019-02-04T07:58:14.261Z,98.0
2019-02-04T07:59:14.981Z,98.4
2019-02-04T08:00:15.653Z,98.7
2019-02-04T08:01:16.548Z,99.0
2019-02-04T08:02:17.221Z,99.2
2019-02-04T08:03:17.894Z,99.0
2019-02-04T08:04:18.628Z,99.2
2019-02-04T08:05:19.297Z,99.0
2019-02-04T08:06:19.969Z,98.8
2019-02-04T08:07:20.639Z,98.7
2019-02-04T08:08:21.309Z,98.2
2019-02-04T08:09:21.982Z,98.4
2019-02-04T08:10:22.947Z,98.0
2019-02-04T08:11:23.619Z,98.2
2019-02-04T08:12:24.291Z,98.3
2019-02-04T08:13:24.962Z,98.3
2019-02-04T08:14:25.634Z,98.3
2019-02-04T08:15:26.305Z,98.1
2019-02-04T08:16:26.975Z,97.8
2019-02-04T08:17:27.646Z,98.1
2019-02-04T08:18:28.572Z,98.0
2019-02-04T08:19:29.242Z,97.4
2019-02-04T08:20:29.918Z,97.3
2019-02-04T08:21:30.585Z,97.5
2019-02-04T08:22:31.257Z,97.7
2019-02-04T08:23:31.931Z,97.7
2019-02-04T08:24:32.598Z,97.3
2019-02-04T08:25:33.274Z,97.1
2019-02-04T08:26:33.952Z,97.3
2019-02-04T08:27:34.952Z,96.9
2019-02-04T08:28:35.625Z,96.9
2019-02-04T08:29:36.297Z,96.9
2019-02-04T08:30:38.068Z,96.7
2019-02-04T08:31:38.632Z,96.5
2019-02-04T08:32:39.301Z,97.1
2019-02-04T08:33:39.972Z,96.7
2019-02-04T08:34:40.643Z,96.5
2019-02-04T08:35:41.616Z,96.8
2019-02-04T08:36:44.547Z,96.0
2019-02-04T08:37:43.951Z,96.3
2019-02-04T08:38:44.672Z,96.3
2019-02-04T08:39:45.344Z,96.1
2019-02-04T08:40:46.017Z,95.7
2019-02-04T08:41:46.689Z,95.9
2019-02-04T08:42:47.361Z,95.7
2019-02-04T08:43:48.294Z,95.3
2019-02-04T08:44:48.968Z,95.6
2019-02-04T08:45:49.638Z,95.1
2019-02-04T08:46:50.311Z,94.9
2019-02-04T08:47:50.981Z,95.1
2019-02-04T08:48:51.655Z,95.2
2019-02-04T08:49:58.495Z,95.2
2019-02-04T08:50:53.987Z,95.0
2019-02-04T08:51:54.665Z,95.0
2019-02-04T08:52:55.579Z,94.7
2019-02-04T08:53:56.299Z,94.6
2019-02-04T08:54:56.964Z,94.7
2019-02-04T08:55:57.632Z,94.5
2019-02-04T08:56:58.303Z,94.4
2019-02-04T08:57:58.979Z,93.6
2019-02-04T08:58:59.648Z,94.1
2019-02-04T09:00:00.318Z,93.8
2019-02-04T09:01:01.295Z,93.9
2019-02-04T09:02:01.964Z,93.4
2019-02-04T09:03:02.639Z,93.4
2019-02-04T09:04:03.308Z,93.3
2019-02-04T09:05:03.980Z,93.7
2019-02-04T09:06:04.653Z,93.9
2019-02-04T09:07:05.324Z,93.7
2019-02-04T09:08:05.997Z,93.3
2019-02-04T09:09:06.708Z,93.2
2019-02-04T09:10:07.377Z,92.7
2019-02-04T09:11:08.049Z,92.9
2019-02-04T09:12:08.719Z,92.9
2019-02-04T09:13:09.455Z,92.9
2019-02-04T09:14:10.170Z,92.8
2019-02-04T09:15:10.842Z,93.0
2019-02-04T09:16:11.514Z,93.0
2019-02-04T09:17:12.380Z,92.8
2019-02-04T09:18:13.046Z,92.6
2019-02-04T09:19:13.716Z,92.3
2019-02-04T09:20:14.436Z,92.2
2019-02-04T09:21:15.107Z,92.3
2019-02-04T09:22:15.780Z,92.1
2019-02-04T09:23:16.453Z,92.2
2019-02-04T09:24:17.123Z,92.3
2019-02-04T09:25:17.799Z,92.0
2019-02-04T09:26:18.467Z,91.9
2019-02-04T09:27:19.138Z,91.7
2019-02-04T09:28:19.810Z,91.6
2019-02-04T09:29:20.483Z,91.9
2019-02-04T09:30:21.156Z,91.4
2019-02-04T09:31:21.876Z,91.0
2019-02-04T09:32:22.588Z,91.2
2019-02-04T09:33:23.236Z,90.4
2019-02-04T09:34:24.143Z,91.0
2019-02-04T09:35:24.818Z,91.1
2019-02-04T09:36:25.492Z,91.1
2019-02-04T09:37:26.161Z,90.9
2019-02-04T09:38:26.836Z,90.8
2019-02-04T09:39:27.508Z,90.8
2019-02-04T09:40:28.180Z,90.5
2019-02-04T09:41:28.852Z,90.6
2019-02-04T09:42:29.769Z,90.6
2019-02-04T09:43:30.448Z,90.3
2019-02-04T09:44:31.161Z,89.9
2019-02-04T09:45:31.832Z,90.4
2019-02-04T09:46:32.509Z,89.8
2019-02-04T09:47:33.177Z,89.9
2019-02-04T09:48:33.849Z,89.6
2019-02-04T09:49:34.522Z,89.7
2019-02-04T09:50:35.334Z,89.6
2019-02-04T09:51:36.006Z,89.3
2019-02-04T09:52:36.679Z,89.4
2019-02-04T09:53:37.352Z,89.4
2019-02-04T09:54:38.023Z,88.7
2019-02-04T09:55:38.695Z,88.9
2019-02-04T09:56:39.369Z,88.7
2019-02-04T09:57:40.041Z,88.8
2019-02-04T09:58:40.714Z,88.7
2019-02-04T09:59:41.628Z,88.4
2019-02-04T10:00:42.300Z,88.2
2019-02-04T10:01:42.972Z,87.9
2019-02-04T10:02:43.646Z,87.9
2019-02-04T10:03:44.319Z,87.9
2019-02-04T10:04:44.993Z,87.4
2019-02-04T10:05:45.668Z,87.6
2019-02-04T10:06:46.338Z,87.5
2019-02-04T10:07:47.008Z,87.8
2019-02-04T10:08:47.731Z,87.7
2019-02-04T10:09:48.402Z,87.7
2019-02-04T10:10:49.078Z,87.3
2019-02-04T10:11:49.751Z,87.1
2019-02-04T10:12:52.513Z,87.3
2019-02-04T10:13:51.139Z,87.0
2019-02-04T10:14:51.812Z,87.1
2019-02-04T10:15:52.512Z,86.5
2019-02-04T10:16:53.495Z,86.0
2019-02-04T10:17:54.173Z,85.8
2019-02-04T10:18:54.841Z,86.2
2019-02-04T10:19:55.510Z,85.5
2019-02-04T10:20:56.227Z,85.1
2019-02-04T10:21:56.883Z,85.2
2019-02-04T10:22:57.555Z,85.1
2019-02-04T10:23:58.222Z,84.9
2019-02-04T10:24:58.896Z,85.0
2019-02-04T10:25:59.951Z,84.4
2019-02-04T10:27:00.670Z,83.8
2019-02-04T10:28:01.333Z,84.1
2019-02-04T10:29:02.034Z,83.6
2019-02-04T10:30:02.783Z,83.9
2019-02-04T10:31:03.454Z,83.4
2019-02-04T10:32:04.098Z,83.3
2019-02-04T10:33:04.759Z,82.7
2019-02-04T10:34:05.698Z,82.5
2019-02-04T10:35:16.537Z,82.7
2019-02-04T10:36:08.047Z,82.8
2019-02-04T10:37:08.704Z,82.4
2019-02-04T10:38:09.381Z,82.5
2019-02-04T10:39:10.095Z,82.1
2019-02-04T10:40:10.774Z,81.4
2019-02-04T10:41:11.440Z,81.1
2019-02-04T10:42:12.112Z,80.7
2019-02-04T10:43:13.054Z,81.0
2019-02-04T10:44:13.740Z,80.8
2019-02-04T10:45:14.404Z,80.7
2019-02-04T10:46:15.078Z,80.2
2019-02-04T10:47:15.776Z,79.9
2019-02-04T10:48:16.526Z,79.8
2019-02-04T10:49:17.205Z,79.8
2019-02-04T10:50:17.885Z,79.7
2019-02-04T10:51:18.925Z,78.9
2019-02-04T10:52:19.572Z,78.2
2019-02-04T10:53:20.349Z,78.4
2019-02-04T10:54:21.012Z,78.4
2019-02-04T10:55:21.700Z,78.0
2019-02-04T10:56:22.343Z,77.5
2019-02-04T10:57:23.092Z,77.6
2019-02-04T10:58:23.737Z,77.0
2019-02-04T10:59:24.429Z,77.2
2019-02-04T11:00:25.462Z,77.0
2019-02-04T11:01:26.181Z,76.1
2019-02-04T11:02:26.819Z,75.8
2019-02-04T11:03:27.520Z,74.9
2019-02-04T11:04:28.287Z,75.2
2019-02-04T11:05:28.955Z,75.5
2019-02-04T11:06:29.653Z,75.6
2019-02-04T11:07:30.347Z,75.5
2019-02-04T11:08:32.826Z,75.4
2019-02-04T11:09:32.713Z,74.9
2019-02-04T11:10:33.401Z,74.7
2019-02-04T11:11:34.078Z,74.5
2019-02-04T11:12:34.885Z,74.3
2019-02-04T11:13:35.521Z,74.1
2019-02-04T11:14:36.202Z,73.8
2019-02-04T11:15:36.923Z,73.1
2019-02-04T11:16:37.598Z,72.5
2019-02-04T11:17:38.553Z,72.0
2019-02-04T11:18:39.279Z,71.4
2019-02-04T11:19:39.918Z,71.2
2019-02-04T11:20:40.610Z,70.6
2019-02-04T11:21:41.328Z,70.7
2019-02-04T11:22:41.975Z,70.7
2019-02-04T11:23:42.652Z,70.4
2019-02-04T11:24:43.318Z,70.0
2019-02-04T11:25:44.344Z,69.8
2019-02-04T11:26:45.086Z,69.7
2019-02-04T11:27:45.733Z,69.5
2019-02-04T11:28:46.479Z,69.2
2019-02-04T11:29:47.179Z,68.9
2019-02-04T11:30:47.978Z,69.1
2019-02-04T11:31:48.638Z,68.8
2019-02-04T11:32:49.370Z,68.7
2019-02-04T11:33:50.154Z,68.7
2019-02-04T11:34:51.151Z,68.5
2019-02-04T11:35:51.833Z,68.8
2019-02-04T11:36:52.521Z,68.7
2019-02-04T11:37:53.198Z,68.1
2019-02-04T11:38:54.064Z,69.2
2019-02-04T11:39:54.763Z,69.0
2019-02-04T11:40:55.519Z,69.1
2019-02-04T11:41:56.191Z,69.5
2019-02-04T11:42:56.885Z,69.3
2019-02-04T11:43:57.885Z,70.0
2019-02-04T11:44:58.597Z,69.3
2019-02-04T11:45:59.250Z,69.4
2019-02-04T11:46:59.965Z,69.2
2019-02-04T11:48:00.606Z,69.0
2019-02-04T11:49:01.285Z,69.3
2019-02-04T11:50:01.961Z,68.6
2019-02-04T11:51:09.916Z,68.3
2019-02-04T11:52:04.350Z,68.0
2019-02-04T11:53:05.024Z,67.7
2019-02-04T11:54:05.700Z,67.1
2019-02-04T11:55:06.375Z,66.7
2019-02-04T11:56:07.052Z,67.0
2019-02-04T11:57:07.728Z,66.9
2019-02-04T11:58:08.418Z,66.1
2019-02-04T11:59:09.080Z,66.1
2019-02-04T12:00:09.757Z,65.3
2019-02-04T12:01:10.732Z,65.1
2019-02-04T12:02:11.410Z,65.5
2019-02-04T12:03:12.085Z,65.4
2019-02-04T12:04:12.761Z,65.2
2019-02-04T12:05:13.436Z,65.6
2019-02-04T12:06:17.298Z,65.6
2019-02-04T12:07:15.781Z,65.3
2019-02-04T12:08:16.461Z,65.5
2019-02-04T12:09:17.323Z,65.4
2019-02-04T12:10:17.997Z,65.4
2019-02-04T12:11:18.672Z,65.5
2019-02-04T12:12:19.351Z,65.3
2019-02-04T12:13:20.024Z,64.8
2019-02-04T12:14:20.707Z,64.6
2019-02-04T12:15:21.424Z,64.0
2019-02-04T12:16:22.100Z,64.3
2019-02-04T12:17:22.776Z,64.2
2019-02-04T12:18:23.726Z,64.5
2019-02-04T12:19:24.403Z,64.4
2019-02-04T12:20:25.077Z,64.1
2019-02-04T12:21:25.754Z,64.5
2019-02-04T12:22:26.523Z,64.3
2019-02-04T12:23:27.173Z,64.9
2019-02-04T12:24:27.851Z,64.6
2019-02-04T12:25:28.526Z,64.4
2019-02-04T12:26:29.479Z,64.6
2019-02-04T12:27:31.965Z,64.5
2019-02-04T12:28:31.822Z,64.7
2019-02-04T12:29:32.498Z,64.4
2019-02-04T12:30:33.175Z,64.1
2019-02-04T12:31:33.853Z,64.0
2019-02-04T12:32:34.529Z,63.1
2019-02-04T12:33:35.203Z,63.0
2019-02-04T12:34:35.878Z,62.6
2019-02-04T12:35:36.597Z,62.8
2019-02-04T12:36:37.280Z,62.6
2019-02-04T12:37:37.949Z,63.5
2019-02-04T12:38:38.627Z,63.1
2019-02-04T12:39:39.301Z,63.2
2019-02-04T12:40:39.979Z,63.7
2019-02-04T12:41:40.656Z,63.4
2019-02-04T12:42:41.334Z,63.4
2019-02-04T12:43:42.259Z,64.0
2019-02-04T12:44:42.932Z,62.6
2019-02-04T12:45:43.609Z,62.9
2019-02-04T12:46:44.334Z,62.8
2019-02-04T12:47:45.017Z,62.7
2019-02-04T12:48:45.690Z,62.8
2019-02-04T12:49:46.366Z,62.6
2019-02-04T12:50:47.040Z,62.4
2019-02-04T12:51:47.716Z,61.9
2019-02-04T12:52:48.394Z,63.0
2019-02-04T12:53:49.072Z,62.8
2019-02-04T12:54:49.747Z,62.7
2019-02-04T12:55:50.422Z,61.7
2019-02-04T12:56:51.098Z,61.7
2019-02-04T12:57:51.777Z,62.3
2019-02-04T12:58:55.689Z,62.8
2019-02-04T12:59:54.121Z,63.0
2019-02-04T13:00:55.027Z,63.1
2019-02-04T13:01:55.703Z,63.1
2019-02-04T13:02:56.435Z,63.8
2019-02-04T13:03:57.103Z,63.9
2019-02-04T13:04:57.784Z,63.7
2019-02-04T13:05:58.507Z,64.2
2019-02-04T13:06:59.192Z,64.0
2019-02-04T13:07:59.861Z,63.6
2019-02-04T13:09:00.536Z,63.7
2019-02-04T13:10:01.271Z,63.7
2019-02-04T13:11:01.948Z,63.7
2019-02-04T13:12:02.627Z,63.9
2019-02-04T13:13:03.303Z,64.2
2019-02-04T13:14:03.978Z,64.0
2019-02-04T13:15:04.654Z,63.8
2019-02-04T13:16:05.331Z,63.9
2019-02-04T13:17:06.008Z,63.2